createdAt,value
2023-04-10T00:00:12.096Z,85.86
2023-04-10T00:02:38.858Z,87.55
2023-04-10T00:05:06.503Z,87.52
2023-04-10T00:07:33.371Z,89.39
2023-04-10T00:10:00.065Z,88.44
2023-04-10T00:12:27.415Z,88.04
2023-04-10T00:14:54.086Z,89.09
2023-04-10T00:17:20.844Z,90.51
2023-04-10T00:19:47.531Z,88.55
2023-04-10T00:22:14.253Z,86.31
2023-04-10T00:24:40.988Z,88.40
2023-04-10T00:27:07.720Z,88.99
2023-04-10T00:29:34.433Z,87.53
2023-04-10T00:32:01.146Z,87.29
2023-04-10T00:34:27.989Z,87.39
2023-04-10T00:36:54.672Z,86.80
2023-04-10T00:39:21.351Z,87.84
2023-04-10T00:41:47.992Z,85.47
2023-04-10T00:44:14.696Z,87.68
2023-04-10T00:46:41.575Z,88.70
2023-04-10T00:49:09.669Z,87.16
2023-04-10T00:51:37.115Z,88.09
2023-04-10T00:54:03.880Z,88.62
2023-04-10T00:56:31.993Z,86.40
2023-04-10T00:58:58.731Z,86.67
2023-04-10T01:01:25.466Z,82.92
2023-04-10T01:03:52.469Z,82.49
2023-04-10T01:06:19.601Z,85.84
2023-04-10T01:09:05.165Z,85.13
2023-04-10T01:11:34.600Z,85.89
2023-04-10T01:14:01.468Z,85.55
2023-04-10T01:16:40.708Z,86.30
2023-04-10T01:19:09.260Z,87.58
2023-04-10T01:21:36.272Z,86.22
2023-04-10T01:24:02.942Z,85.54
2023-04-10T01:26:49.837Z,85.67
2023-04-10T01:29:19.917Z,82.94
2023-04-10T01:31:55.469Z,84.07
2023-04-10T01:34:23.398Z,84.97
2023-04-10T01:36:51.354Z,83.93
2023-04-10T01:39:21.617Z,83.53
2023-04-10T01:41:52.793Z,84.92
2023-04-10T01:44:21.867Z,84.49
2023-04-10T01:46:49.028Z,86.01
2023-04-10T01:49:16.041Z,86.67
2023-04-10T01:51:43.472Z,86.49
2023-04-10T01:54:10.260Z,88.95
2023-04-10T01:56:36.988Z,91.02
2023-04-10T01:59:03.972Z,91.06
2023-04-10T02:01:30.761Z,92.47
2023-04-10T02:03:58.337Z,93.82
2023-04-10T02:06:26.232Z,94.20
2023-04-10T02:08:54.671Z,93.89
2023-04-10T02:11:31.699Z,93.84
2023-04-10T02:14:00.136Z,93.68
2023-04-10T02:16:27.839Z,92.50
2023-04-10T02:18:54.543Z,91.29
2023-04-10T02:21:21.650Z,91.72
2023-04-10T02:23:48.329Z,90.91
2023-04-10T02:26:15.074Z,88.13
2023-04-10T02:28:41.738Z,88.86
2023-04-10T02:31:08.483Z,88.60
2023-04-10T02:33:35.213Z,89.58
2023-04-10T02:36:02.044Z,89.53
2023-04-10T02:38:28.756Z,90.83
2023-04-10T02:40:55.590Z,93.84
2023-04-10T02:43:22.307Z,96.04
2023-04-10T02:45:48.988Z,96.50
2023-04-10T02:48:15.738Z,95.41
2023-04-10T02:50:46.557Z,96.85
2023-04-10T02:53:16.454Z,94.24
2023-04-10T02:55:43.146Z,92.84
2023-04-10T02:58:09.916Z,92.70
2023-04-10T03:00:36.659Z,93.75
2023-04-10T03:03:03.455Z,92.22
2023-04-10T03:05:30.649Z,91.94
2023-04-10T03:07:57.346Z,91.92
2023-04-10T03:10:24.784Z,92.01
2023-04-10T03:12:51.479Z,92.83
2023-04-10T03:15:18.412Z,91.77
2023-04-10T03:17:45.148Z,89.89
2023-04-10T03:20:12.146Z,89.28
2023-04-10T03:22:39.861Z,90.11
2023-04-10T03:25:06.821Z,90.35
2023-04-10T03:27:35.136Z,89.50
2023-04-10T03:30:02.941Z,88.13
2023-04-10T03:32:31.358Z,87.40
2023-04-10T03:34:58.453Z,87.43
2023-04-10T03:37:27.481Z,90.07
2023-04-10T03:39:54.298Z,90.03
2023-04-10T03:42:20.982Z,90.20
2023-04-10T03:44:47.674Z,90.51
2023-04-10T03:47:14.370Z,90.63
2023-04-10T03:49:41.069Z,87.58
2023-04-10T03:52:07.745Z,89.63
2023-04-10T03:54:34.439Z,88.66
2023-04-10T03:57:01.729Z,90.57
2023-04-10T03:59:37.819Z,90.13
2023-04-10T04:02:05.230Z,88.27
2023-04-10T04:04:32.188Z,85.73
2023-04-10T04:06:58.942Z,87.33
2023-04-10T04:09:25.635Z,87.62
2023-04-10T04:11:52.278Z,89.19
2023-04-10T04:14:18.965Z,90.40
2023-04-10T04:16:45.767Z,87.21
2023-04-10T04:19:12.444Z,87.43
2023-04-10T04:21:39.097Z,87.93
2023-04-10T04:24:05.930Z,89.71
2023-04-10T04:26:33.014Z,89.64
2023-04-10T04:28:59.722Z,89.36
2023-04-10T04:31:32.498Z,88.29
2023-04-10T04:36:27.829Z,87.36
2023-04-10T04:38:54.811Z,87.50
2023-04-10T04:41:21.568Z,85.18
2023-04-10T04:43:49.560Z,86.06
2023-04-10T04:46:16.303Z,88.98
2023-04-10T04:48:42.992Z,93.42
2023-04-10T04:51:09.690Z,94.25
2023-04-10T04:53:37.056Z,97.33
2023-04-10T04:56:03.793Z,87.70
2023-04-10T04:58:30.506Z,89.78
2023-04-10T05:00:57.222Z,86.70
2023-04-10T05:03:24.115Z,87.83
2023-04-10T05:05:50.893Z,89.42
2023-04-10T05:08:17.576Z,85.19
2023-04-10T05:10:44.225Z,86.24
2023-04-10T05:13:11.126Z,89.14
2023-04-10T05:15:37.846Z,92.22
2023-04-10T05:18:04.600Z,85.29
2023-04-10T05:20:31.628Z,78.14
2023-04-10T05:22:58.445Z,71.80
2023-04-10T05:25:25.200Z,67.98
2023-04-10T05:27:51.854Z,63.24
2023-04-10T05:30:18.589Z,59.97
2023-04-10T05:32:46.425Z,57.00
2023-04-10T05:35:13.134Z,53.31
2023-04-10T05:37:39.780Z,50.56
2023-04-10T05:40:06.921Z,48.28
2023-04-10T05:42:33.582Z,48.00
2023-04-10T05:45:00.253Z,49.26
2023-04-10T05:47:26.976Z,49.38
2023-04-10T05:49:53.735Z,49.96
2023-04-10T05:52:20.404Z,49.07
2023-04-10T05:54:47.205Z,48.88
2023-04-10T05:57:13.876Z,48.92
2023-04-10T05:59:40.517Z,50.31
2023-04-10T06:02:07.364Z,51.86
2023-04-10T06:04:34.333Z,51.30
2023-04-10T06:07:01.560Z,50.14
2023-04-10T06:09:28.232Z,49.81
2023-04-10T06:11:54.959Z,48.77
2023-04-10T06:14:21.625Z,47.95
2023-04-10T06:16:48.376Z,45.84
2023-04-10T06:19:15.061Z,46.64
2023-04-10T06:21:41.725Z,46.43
2023-04-10T06:24:09.218Z,44.73
2023-04-10T06:26:37.398Z,44.93
2023-04-10T06:29:04.060Z,45.50
2023-04-10T06:31:33.013Z,45.99
2023-04-10T06:34:00.033Z,45.26
2023-04-10T06:36:27.813Z,45.27
2023-04-10T06:38:54.730Z,46.31
2023-04-10T06:41:21.616Z,44.23
2023-04-10T06:43:48.316Z,44.27
2023-04-10T06:46:16.383Z,42.85
2023-04-10T06:48:43.064Z,43.92
2023-04-10T06:51:09.745Z,43.62
2023-04-10T06:53:36.687Z,43.18
2023-04-10T06:56:03.903Z,42.68
2023-04-10T06:58:30.954Z,43.05
2023-04-10T07:00:59.057Z,41.16
2023-04-10T07:03:25.828Z,42.50
2023-04-10T07:05:52.518Z,42.57
2023-04-10T07:08:19.389Z,43.43
2023-04-10T07:10:46.133Z,43.67
2023-04-10T07:13:13.151Z,43.16
2023-04-10T07:15:39.830Z,44.97
2023-04-10T07:18:06.617Z,44.46
2023-04-10T07:20:33.427Z,42.20
2023-04-10T07:23:00.074Z,44.72
2023-04-10T07:25:26.779Z,42.78
2023-04-10T07:27:53.450Z,43.87
2023-04-10T07:30:20.603Z,46.42
2023-04-10T07:32:47.516Z,47.51
2023-04-10T07:35:14.374Z,47.19
2023-04-10T07:37:42.040Z,46.41
2023-04-10T07:40:09.014Z,43.61
2023-04-10T07:42:35.735Z,47.92
2023-04-10T07:45:02.448Z,49.31
2023-04-10T07:47:29.188Z,48.42
2023-04-10T07:49:56.617Z,49.15
2023-04-10T07:52:23.307Z,50.76
2023-04-10T07:54:50.048Z,48.89
2023-04-10T07:57:16.696Z,47.03
2023-04-10T07:59:43.410Z,45.17
2023-04-10T08:02:10.194Z,45.30
2023-04-10T08:04:37.198Z,48.61
2023-04-10T08:07:03.988Z,48.40
2023-04-10T08:09:30.884Z,46.48
2023-04-10T08:11:58.234Z,46.30
2023-04-10T08:14:24.914Z,46.05
2023-04-10T08:16:51.664Z,47.60
2023-04-10T08:19:18.411Z,44.08
2023-04-10T08:21:45.214Z,45.93
2023-04-10T08:24:11.870Z,46.19
2023-04-10T08:26:38.528Z,48.53
2023-04-10T08:29:06.631Z,52.47
2023-04-10T08:31:33.346Z,50.74
2023-04-10T08:34:00.402Z,48.01
2023-04-10T08:36:27.653Z,50.84
2023-04-10T08:38:54.372Z,49.57
2023-04-10T08:41:21.136Z,49.59
2023-04-10T08:43:47.892Z,47.33
2023-04-10T08:46:14.970Z,46.97
2023-04-10T08:48:48.851Z,46.32
2023-04-10T08:51:19.980Z,45.33
2023-04-10T08:53:48.198Z,42.81
2023-04-10T08:56:15.536Z,41.02
2023-04-10T08:58:43.035Z,38.89
2023-04-10T09:01:09.871Z,43.80
2023-04-10T09:03:36.745Z,40.01
2023-04-10T09:06:06.313Z,40.56
2023-04-10T09:08:33.182Z,38.98
2023-04-10T09:10:59.857Z,40.74
2023-04-10T09:13:36.260Z,38.80
2023-04-10T09:16:03.097Z,38.63
2023-04-10T09:18:42.793Z,38.00
2023-04-10T09:21:11.222Z,38.82
2023-04-10T09:23:37.885Z,39.95
2023-04-10T09:26:25.835Z,41.95
2023-04-10T09:29:01.800Z,39.92
2023-04-10T09:31:37.946Z,41.75
2023-04-10T09:34:16.948Z,37.24
2023-04-10T09:36:44.197Z,38.25
2023-04-10T09:39:11.635Z,40.13
2023-04-10T09:41:53.501Z,38.36
2023-04-10T09:44:28.989Z,39.37
2023-04-10T09:46:55.779Z,38.26
2023-04-10T09:49:22.863Z,37.34
2023-04-10T09:51:49.926Z,34.86
2023-04-10T09:54:16.613Z,36.80
2023-04-10T09:56:44.025Z,39.17
2023-04-10T09:59:11.273Z,40.80
2023-04-10T10:01:37.992Z,35.18
2023-04-10T10:04:04.855Z,34.63
2023-04-10T10:06:35.027Z,36.81
2023-04-10T10:09:04.884Z,36.69
2023-04-10T10:11:33.434Z,38.62
2023-04-10T10:14:00.683Z,38.90
2023-04-10T10:16:27.429Z,38.34
2023-04-10T10:19:00.173Z,39.71
2023-04-10T10:21:28.166Z,39.36
2023-04-10T10:23:55.858Z,37.88
2023-04-10T10:26:23.507Z,36.92
2023-04-10T10:28:51.274Z,38.81
2023-04-10T10:31:18.417Z,38.65
2023-04-10T10:33:45.112Z,38.06
2023-04-10T10:36:14.079Z,40.59
2023-04-10T10:38:42.513Z,41.25
2023-04-10T10:41:09.161Z,42.61
2023-04-10T10:43:35.920Z,43.26
2023-04-10T10:46:03.445Z,41.08
2023-04-10T10:48:30.246Z,42.62
2023-04-10T10:50:59.055Z,42.44
2023-04-10T10:53:32.413Z,41.26
2023-04-10T10:55:59.059Z,39.89
2023-04-10T10:58:44.118Z,40.01
2023-04-10T11:01:11.036Z,42.30
2023-04-10T11:03:38.153Z,40.13
2023-04-10T11:06:07.451Z,40.28
2023-04-10T11:08:35.365Z,39.92
2023-04-10T11:11:06.124Z,39.04
2023-04-10T11:13:33.357Z,37.16
2023-04-10T11:16:01.420Z,35.91
2023-04-10T11:18:56.109Z,34.83
2023-04-10T11:21:29.770Z,36.02
2023-04-10T11:23:56.432Z,36.84
2023-04-10T11:26:41.827Z,35.39
2023-04-10T11:29:17.623Z,34.28
2023-04-10T11:31:48.621Z,36.13
2023-04-10T11:34:16.024Z,37.77
2023-04-10T11:36:43.202Z,36.01
2023-04-10T11:39:10.511Z,38.20
2023-04-10T11:41:39.165Z,38.31
2023-04-10T11:44:06.481Z,36.69
2023-04-10T11:46:36.529Z,36.11
2023-04-10T11:49:03.993Z,34.03
2023-04-10T11:51:31.179Z,35.93
2023-04-10T11:54:08.094Z,37.31
2023-04-10T11:56:35.019Z,39.81
2023-04-10T11:59:02.826Z,42.83
2023-04-10T12:01:29.488Z,38.70
2023-04-10T12:03:56.706Z,38.18
2023-04-10T12:06:23.557Z,40.29
2023-04-10T12:08:51.303Z,40.93
2023-04-10T12:11:19.050Z,38.61
2023-04-10T12:13:45.851Z,37.86
2023-04-10T12:16:12.627Z,37.75
2023-04-10T12:18:39.341Z,35.45
2023-04-10T12:21:08.184Z,36.31
2023-04-10T12:23:37.387Z,36.89
2023-04-10T12:26:11.440Z,38.68
2023-04-10T12:28:38.668Z,38.64
2023-04-10T12:31:05.547Z,38.90
2023-04-10T12:33:32.442Z,37.63
2023-04-10T12:35:59.433Z,38.41
2023-04-10T12:38:42.254Z,38.14
2023-04-10T12:41:09.494Z,42.31
2023-04-10T12:43:37.090Z,40.41
2023-04-10T12:46:04.166Z,40.54
2023-04-10T12:48:30.977Z,39.08
2023-04-10T12:50:57.738Z,39.91
2023-04-10T12:53:24.890Z,40.69
2023-04-10T12:55:59.517Z,40.95
2023-04-10T12:58:28.858Z,37.63
2023-04-10T13:00:58.873Z,38.51
2023-04-10T13:03:25.962Z,39.54
2023-04-10T13:05:53.586Z,38.40
2023-04-10T13:08:21.229Z,37.78
2023-04-10T13:10:48.132Z,39.91
2023-04-10T13:13:15.030Z,39.25
2023-04-10T13:15:41.766Z,38.40
2023-04-10T13:18:08.727Z,38.35
2023-04-10T13:20:36.317Z,36.47
2023-04-10T13:23:04.146Z,37.66
2023-04-10T13:25:32.755Z,39.95
2023-04-10T13:28:00.563Z,38.27
2023-04-10T13:30:27.741Z,37.18
2023-04-10T13:32:54.921Z,36.32
2023-04-10T13:35:22.165Z,36.66
2023-04-10T13:37:48.907Z,37.02
2023-04-10T13:40:15.640Z,37.83
2023-04-10T13:42:42.705Z,37.77
2023-04-10T13:45:09.589Z,39.69
2023-04-10T13:47:36.305Z,42.69
2023-04-10T13:50:03.095Z,43.16
2023-04-10T13:52:29.768Z,42.82
2023-04-10T13:54:56.460Z,41.10
2023-04-10T13:57:23.165Z,43.62
2023-04-10T13:59:50.035Z,42.07
2023-04-10T14:02:16.778Z,42.30
2023-04-10T14:04:46.216Z,44.41
2023-04-10T14:07:12.888Z,46.35
2023-04-10T14:09:39.596Z,46.21
2023-04-10T14:12:06.250Z,44.29
2023-04-10T14:14:32.959Z,43.82
2023-04-10T14:16:59.629Z,42.40
2023-04-10T14:19:26.341Z,41.91
2023-04-10T14:21:52.980Z,42.40
2023-04-10T14:24:19.740Z,43.02
2023-04-10T14:26:46.391Z,43.22
2023-04-10T14:29:14.782Z,43.68
2023-04-10T14:31:56.569Z,43.18
2023-04-10T14:34:24.127Z,43.25
2023-04-10T14:36:55.782Z,43.57
2023-04-10T14:39:23.634Z,42.15
2023-04-10T14:41:50.597Z,41.35
2023-04-10T14:44:17.590Z,40.97
2023-04-10T14:46:44.591Z,40.96
2023-04-10T14:49:12.184Z,40.31
2023-04-10T14:51:38.885Z,40.70
2023-04-10T14:54:06.296Z,40.75
2023-04-10T14:56:33.135Z,42.51
2023-04-10T14:58:59.849Z,42.59
2023-04-10T15:01:26.551Z,42.68
2023-04-10T15:03:53.802Z,44.46
2023-04-10T15:06:21.069Z,44.13
2023-04-10T15:08:47.747Z,43.58
2023-04-10T15:11:14.392Z,42.08
2023-04-10T15:13:41.166Z,45.03
2023-04-10T15:16:08.292Z,46.72
2023-04-10T15:18:34.990Z,47.48
2023-04-10T15:21:01.672Z,47.89
2023-04-10T15:23:28.364Z,47.76
2023-04-10T15:25:55.291Z,46.81
2023-04-10T15:28:22.038Z,47.46
2023-04-10T15:30:50.213Z,46.95
2023-04-10T15:33:17.314Z,46.75
2023-04-10T15:35:47.180Z,47.81
2023-04-10T15:38:14.279Z,46.26
2023-04-10T15:40:40.980Z,47.61
2023-04-10T15:43:07.710Z,47.64
2023-04-10T15:45:35.730Z,47.11
2023-04-10T15:48:04.608Z,47.65
2023-04-10T15:50:31.503Z,48.67
2023-04-10T15:52:58.173Z,46.73
2023-04-10T15:55:24.846Z,49.45
2023-04-10T15:57:51.592Z,48.05
2023-04-10T16:00:18.453Z,47.33
2023-04-10T16:02:45.453Z,47.43
2023-04-10T16:05:12.416Z,48.14
2023-04-10T16:07:40.872Z,49.07
2023-04-10T16:10:09.343Z,50.27
2023-04-10T16:12:36.105Z,50.44
2023-04-10T16:15:04.586Z,51.48
2023-04-10T16:17:31.399Z,52.35
2023-04-10T16:19:58.176Z,52.67
2023-04-10T16:22:24.854Z,52.43
2023-04-10T16:24:54.655Z,52.32
2023-04-10T16:27:21.328Z,52.57
2023-04-10T16:29:48.015Z,54.02
2023-04-10T16:32:14.689Z,53.08
2023-04-10T16:34:41.380Z,53.32
2023-04-10T16:37:08.095Z,54.07
2023-04-10T16:39:34.795Z,52.51
2023-04-10T16:42:03.561Z,52.70
2023-04-10T16:44:30.305Z,51.73
2023-04-10T16:46:57.087Z,52.20
2023-04-10T16:49:24.630Z,51.12
2023-04-10T16:51:51.309Z,51.06
2023-04-10T16:54:17.953Z,52.40
2023-04-10T16:56:44.639Z,53.08
2023-04-10T16:59:11.349Z,53.45
2023-04-10T17:01:40.003Z,52.97
2023-04-10T17:04:08.062Z,54.82
2023-04-10T17:06:35.433Z,53.98
2023-04-10T17:09:02.117Z,53.76
2023-04-10T17:11:28.876Z,53.25
2023-04-10T17:13:55.583Z,52.72
2023-04-10T17:16:22.316Z,54.74
2023-04-10T17:18:49.106Z,52.90
2023-04-10T17:21:15.774Z,53.55
2023-04-10T17:23:42.574Z,53.54
2023-04-10T17:26:13.049Z,53.48
2023-04-10T17:28:39.895Z,52.84
2023-04-10T17:31:06.908Z,53.51
2023-04-10T17:33:33.576Z,52.88
2023-04-10T17:36:00.334Z,53.03
2023-04-10T17:38:27.066Z,53.59
2023-04-10T17:40:53.749Z,54.03
2023-04-10T17:43:20.542Z,54.77
2023-04-10T17:45:47.230Z,55.53
2023-04-10T17:48:13.997Z,54.73
2023-04-10T17:50:40.734Z,55.34
2023-04-10T17:53:07.592Z,54.96
2023-04-10T17:55:37.966Z,54.23
2023-04-10T17:58:04.672Z,54.95
2023-04-10T18:00:31.404Z,55.32
2023-04-10T18:03:01.215Z,56.62
2023-04-10T18:05:28.514Z,56.48
2023-04-10T18:07:55.247Z,56.07
2023-04-10T18:10:22.066Z,56.51
2023-04-10T18:12:51.071Z,56.64
2023-04-10T18:15:17.927Z,57.16
2023-04-10T18:17:44.643Z,57.41
2023-04-10T18:20:11.359Z,58.41
2023-04-10T18:22:38.025Z,58.95
2023-04-10T18:25:05.415Z,59.97
2023-04-10T18:27:34.518Z,60.32
2023-04-10T18:30:01.224Z,62.20
2023-04-10T18:32:27.996Z,61.16
2023-04-10T18:34:54.753Z,60.06
2023-04-10T18:37:21.387Z,61.17
2023-04-10T18:39:48.048Z,62.02
2023-04-10T18:42:14.731Z,60.49
2023-04-10T18:44:41.455Z,60.14
2023-04-10T18:47:08.242Z,58.95
2023-04-10T18:49:34.912Z,60.16
2023-04-10T18:52:01.592Z,61.14
2023-04-10T18:54:29.192Z,61.26
2023-04-10T18:56:56.839Z,61.31
2023-04-10T18:59:23.579Z,60.94
2023-04-10T19:01:50.327Z,63.13
2023-04-10T19:04:17.176Z,62.66
2023-04-10T19:06:46.237Z,63.10
2023-04-10T19:09:13.318Z,64.67
2023-04-10T19:11:40.166Z,63.71
2023-04-10T19:14:07.114Z,64.43
2023-04-10T19:19:05.848Z,65.03
2023-04-10T19:21:32.629Z,65.97
2023-04-10T19:23:59.327Z,66.12
2023-04-10T19:26:26.002Z,66.30
2023-04-10T19:28:55.414Z,65.60
2023-04-10T19:31:23.776Z,66.66
2023-04-10T19:33:50.571Z,66.11
2023-04-10T19:36:18.346Z,64.41
2023-04-10T19:38:48.742Z,64.98
2023-04-10T19:41:15.675Z,66.40
2023-04-10T19:43:42.441Z,65.97
2023-04-10T19:46:16.198Z,67.09
2023-04-10T19:48:42.902Z,66.04
2023-04-10T19:51:10.062Z,66.69
2023-04-10T19:53:36.881Z,68.98
2023-04-10T19:56:03.548Z,67.83
2023-04-10T19:58:39.959Z,69.87
2023-04-10T20:01:09.057Z,69.01
2023-04-10T20:03:37.092Z,68.49
2023-04-10T20:06:04.664Z,67.15
2023-04-10T20:08:31.418Z,65.19
2023-04-10T20:10:58.480Z,63.93
2023-04-10T20:13:25.420Z,66.49
2023-04-10T20:15:52.222Z,66.23
2023-04-10T20:18:18.986Z,65.02
2023-04-10T20:20:45.663Z,64.11
2023-04-10T20:23:12.532Z,63.18
2023-04-10T20:25:39.326Z,61.86
2023-04-10T20:28:06.442Z,63.26
2023-04-10T20:30:33.157Z,63.75
2023-04-10T20:32:59.892Z,64.00
2023-04-10T20:35:27.197Z,65.64
2023-04-10T20:37:53.878Z,64.46
2023-04-10T20:40:20.579Z,64.65
2023-04-10T20:42:47.291Z,64.91
2023-04-10T20:45:14.011Z,64.27
2023-04-10T20:47:40.797Z,66.36
2023-04-10T20:50:07.953Z,66.25
2023-04-10T20:52:34.629Z,66.87
2023-04-10T20:55:01.348Z,68.19
2023-04-10T20:57:28.115Z,66.53
2023-04-10T20:59:54.791Z,68.00
2023-04-10T21:02:21.569Z,66.19
2023-04-10T21:04:49.985Z,65.31
2023-04-10T21:07:16.673Z,65.51
2023-04-10T21:09:43.372Z,66.97
2023-04-10T21:12:10.023Z,68.75
2023-04-10T21:14:36.778Z,67.64
2023-04-10T21:17:03.520Z,69.34
2023-04-10T21:19:30.235Z,68.46
2023-04-10T21:21:57.370Z,67.26
2023-04-10T21:24:24.066Z,70.01
2023-04-10T21:26:50.828Z,67.72
2023-04-10T21:29:17.491Z,67.67
2023-04-10T21:31:44.198Z,67.37
2023-04-10T21:34:10.914Z,68.68
2023-04-10T21:36:38.569Z,69.19
2023-04-10T21:39:09.321Z,68.48
2023-04-10T21:41:36.656Z,67.53
2023-04-10T21:44:03.426Z,69.05
2023-04-10T21:46:30.692Z,66.50
2023-04-10T21:48:57.493Z,65.85
2023-04-10T21:51:25.741Z,66.93
2023-04-10T21:53:53.481Z,65.32
2023-04-10T21:56:20.215Z,66.25
2023-04-10T21:58:46.874Z,64.35
2023-04-10T22:01:13.601Z,64.18
2023-04-10T22:03:40.480Z,63.66
2023-04-10T22:06:07.442Z,64.86
2023-04-10T22:08:34.140Z,63.41
2023-04-10T22:11:00.836Z,64.07
2023-04-10T22:13:30.745Z,63.43
2023-04-10T22:15:58.015Z,63.61
2023-04-10T22:18:24.717Z,63.31
2023-04-10T22:20:51.503Z,64.41
2023-04-10T22:23:18.200Z,63.19
2023-04-10T22:25:44.884Z,63.13
2023-04-10T22:28:11.644Z,63.77
2023-04-10T22:30:38.350Z,66.56
2023-04-10T22:33:05.104Z,68.05
2023-04-10T22:35:32.688Z,66.74
2023-04-10T22:37:59.411Z,64.82
2023-04-10T22:40:26.081Z,63.80
2023-04-10T22:42:52.752Z,63.52
2023-04-10T22:45:19.453Z,64.29
2023-04-10T22:47:46.148Z,64.81
2023-04-10T22:50:12.855Z,66.54
2023-04-10T22:52:39.539Z,65.37
2023-04-10T22:55:09.319Z,67.03
2023-04-10T22:57:35.979Z,64.88
2023-04-10T23:00:02.747Z,66.51
2023-04-10T23:02:31.479Z,66.25
2023-04-10T23:04:58.250Z,65.58
2023-04-10T23:07:25.898Z,65.66
2023-04-10T23:09:52.623Z,64.83
2023-04-10T23:12:19.299Z,65.04
2023-04-10T23:14:45.990Z,63.08
2023-04-10T23:17:12.641Z,64.07
2023-04-10T23:19:39.292Z,64.65
2023-04-10T23:22:05.932Z,63.13
2023-04-10T23:24:32.637Z,63.88
2023-04-10T23:26:59.365Z,63.73
2023-04-10T23:29:26.035Z,63.75
2023-04-10T23:31:52.669Z,64.66
2023-04-10T23:34:20.965Z,65.88
2023-04-10T23:36:47.638Z,66.24
2023-04-10T23:39:14.396Z,65.28
2023-04-10T23:41:41.095Z,65.28
2023-04-10T23:44:07.754Z,64.88
2023-04-10T23:46:34.529Z,64.17
2023-04-10T23:49:01.238Z,65.20
2023-04-10T23:51:28.224Z,64.47
2023-04-10T23:53:54.899Z,66.77
2023-04-10T23:56:21.707Z,66.29
2023-04-10T23:58:48.488Z,66.29
